createdAt,value
2018-12-22T00:01:10.390Z,88.30
2018-12-22T00:03:41.268Z,88.45
2018-12-22T00:06:10.192Z,88.14
2018-12-22T00:08:39.085Z,88.55
2018-12-22T00:11:08.026Z,88.33
2018-12-22T00:13:36.910Z,87.72
2018-12-22T00:16:05.855Z,86.74
2018-12-22T00:18:34.758Z,87.76
2018-12-22T00:21:03.681Z,87.57
2018-12-22T00:23:32.628Z,87.82
2018-12-22T00:26:01.564Z,87.93
2018-12-22T00:28:30.450Z,87.27
2018-12-22T00:30:59.361Z,87.44
2018-12-22T00:33:28.433Z,87.87
2018-12-22T00:35:57.336Z,87.31
2018-12-22T00:38:26.257Z,87.57
2018-12-22T00:40:55.183Z,87.76
2018-12-22T00:43:24.125Z,86.50
2018-12-22T00:45:53.084Z,87.31
2018-12-22T00:48:22.001Z,86.87
2018-12-22T00:50:50.929Z,85.75
2018-12-22T00:53:19.832Z,86.71
2018-12-22T00:55:48.737Z,85.27
2018-12-22T00:58:17.664Z,86.09
2018-12-22T01:00:46.586Z,85.94
2018-12-22T01:03:15.513Z,86.01
2018-12-22T01:05:44.411Z,86.41
2018-12-22T01:08:13.321Z,86.57
2018-12-22T01:10:42.224Z,86.82
2018-12-22T01:13:11.093Z,86.89
2018-12-22T01:15:39.966Z,86.78
2018-12-22T01:18:08.891Z,86.94
2018-12-22T01:20:37.822Z,86.25
2018-12-22T01:23:06.756Z,86.01
2018-12-22T01:25:35.638Z,86.36
2018-12-22T01:28:04.589Z,86.31
2018-12-22T01:30:33.489Z,86.37
2018-12-22T01:33:02.393Z,85.11
2018-12-22T01:35:31.387Z,85.94
2018-12-22T01:38:00.191Z,85.96
2018-12-22T01:40:29.119Z,86.29
2018-12-22T01:42:58.007Z,85.83
2018-12-22T01:45:26.928Z,85.61
2018-12-22T01:47:55.858Z,85.95
2018-12-22T01:50:24.805Z,84.95
2018-12-22T01:52:53.679Z,85.45
2018-12-22T01:55:22.611Z,85.77
2018-12-22T01:57:51.537Z,85.73
2018-12-22T02:00:20.454Z,85.73
2018-12-22T02:02:49.362Z,85.81
2018-12-22T02:05:18.253Z,85.46
2018-12-22T02:07:47.187Z,85.51
2018-12-22T02:10:16.105Z,85.86
2018-12-22T02:12:44.997Z,85.90
2018-12-22T02:15:13.887Z,86.40
2018-12-22T02:17:42.820Z,86.87
2018-12-22T02:20:11.822Z,86.82
2018-12-22T02:22:40.626Z,85.16
2018-12-22T02:25:09.549Z,85.97
2018-12-22T02:27:38.436Z,86.42
2018-12-22T02:30:07.454Z,86.00
2018-12-22T02:32:36.348Z,86.36
2018-12-22T02:35:05.314Z,86.69
2018-12-22T02:37:34.225Z,86.69
2018-12-22T02:40:03.373Z,86.97
2018-12-22T02:42:32.264Z,87.25
2018-12-22T02:45:01.182Z,87.46
2018-12-22T02:47:30.067Z,88.48
2018-12-22T02:49:58.970Z,88.00
2018-12-22T02:52:27.879Z,89.05
2018-12-22T02:54:56.751Z,89.11
2018-12-22T02:57:25.639Z,88.93
2018-12-22T02:59:54.537Z,90.01
2018-12-22T03:02:23.458Z,90.39
2018-12-22T03:04:52.345Z,90.06
2018-12-22T03:07:21.218Z,90.21
2018-12-22T03:09:50.140Z,90.45
2018-12-22T03:12:19.028Z,90.61
2018-12-22T03:14:47.912Z,90.48
2018-12-22T03:17:16.784Z,90.72
2018-12-22T03:19:45.687Z,91.19
2018-12-22T03:22:14.591Z,90.82
2018-12-22T03:24:43.511Z,90.97
2018-12-22T03:27:12.396Z,91.09
2018-12-22T03:29:41.293Z,90.89
2018-12-22T03:32:10.170Z,90.88
2018-12-22T03:34:39.059Z,90.98
2018-12-22T03:37:07.980Z,90.42
2018-12-22T03:39:36.889Z,90.15
2018-12-22T03:42:05.778Z,91.86
2018-12-22T03:44:34.702Z,91.79
2018-12-22T03:47:03.610Z,91.79
2018-12-22T03:49:32.515Z,91.74
2018-12-22T03:52:01.438Z,90.80
2018-12-22T03:54:30.346Z,91.98
2018-12-22T03:56:59.247Z,92.33
2018-12-22T03:59:28.117Z,92.20
2018-12-22T04:01:57.098Z,91.94
2018-12-22T04:04:25.949Z,92.83
2018-12-22T04:06:54.838Z,92.84
2018-12-22T04:09:23.753Z,92.82
2018-12-22T04:11:52.631Z,92.62
2018-12-22T04:14:21.524Z,91.77
2018-12-22T04:16:50.399Z,92.79
2018-12-22T04:19:19.315Z,93.05
2018-12-22T04:21:48.232Z,93.00
2018-12-22T04:24:17.114Z,92.81
2018-12-22T04:26:46.017Z,93.02
2018-12-22T04:29:14.895Z,92.80
2018-12-22T04:31:43.838Z,92.68
2018-12-22T04:34:12.744Z,92.20
2018-12-22T04:36:41.656Z,92.29
2018-12-22T04:39:10.578Z,92.26
2018-12-22T04:41:39.450Z,92.39
2018-12-22T04:44:08.365Z,92.20
2018-12-22T04:46:37.261Z,92.33
2018-12-22T04:49:06.193Z,92.01
2018-12-22T04:51:35.140Z,91.64
2018-12-22T04:54:04.034Z,91.79
2018-12-22T04:56:32.920Z,91.43
2018-12-22T04:59:01.847Z,91.20
2018-12-22T05:01:30.764Z,91.38
2018-12-22T05:03:59.656Z,91.15
2018-12-22T05:06:28.579Z,91.44
2018-12-22T05:08:57.459Z,91.07
2018-12-22T05:11:26.389Z,91.08
2018-12-22T05:13:55.291Z,91.14
2018-12-22T05:16:24.184Z,90.89
2018-12-22T05:18:53.111Z,90.68
2018-12-22T05:21:22.042Z,90.85
2018-12-22T05:23:50.927Z,90.30
2018-12-22T05:26:19.840Z,90.48
2018-12-22T05:28:48.750Z,90.64
2018-12-22T05:31:17.677Z,90.33
2018-12-22T05:33:46.580Z,90.19
2018-12-22T05:36:15.516Z,89.79
2018-12-22T05:38:44.426Z,89.15
2018-12-22T05:41:13.353Z,89.26
2018-12-22T05:43:42.253Z,89.36
2018-12-22T05:46:11.174Z,89.32
2018-12-22T05:48:40.039Z,89.18
2018-12-22T05:51:09.078Z,89.08
2018-12-22T05:53:38.004Z,88.80
2018-12-22T05:56:06.981Z,89.25
2018-12-22T05:58:35.912Z,89.10
2018-12-22T06:01:04.802Z,89.57
2018-12-22T06:03:33.713Z,89.46
2018-12-22T06:06:02.585Z,89.46
2018-12-22T06:08:31.487Z,89.54
2018-12-22T06:11:00.367Z,89.82
2018-12-22T06:13:29.297Z,90.10
2018-12-22T06:15:58.224Z,90.20
2018-12-22T06:18:27.120Z,89.64
2018-12-22T06:20:56.062Z,90.41
2018-12-22T06:23:26.743Z,90.50
2018-12-22T06:25:53.816Z,90.85
2018-12-22T06:28:22.721Z,90.82
2018-12-22T06:30:51.610Z,90.57
2018-12-22T06:33:20.541Z,90.65
2018-12-22T06:35:49.457Z,90.77
2018-12-22T06:38:18.397Z,90.76
2018-12-22T06:40:47.308Z,90.59
2018-12-22T06:43:16.213Z,90.78
2018-12-22T06:45:45.096Z,90.76
2018-12-22T06:48:14.003Z,90.82
2018-12-22T06:50:42.890Z,89.20
2018-12-22T06:53:11.812Z,90.20
2018-12-22T06:55:40.711Z,90.55
2018-12-22T06:58:09.600Z,90.43
2018-12-22T07:00:38.574Z,90.44
2018-12-22T07:03:07.464Z,90.53
2018-12-22T07:05:36.337Z,90.60
2018-12-22T07:08:05.258Z,90.21
2018-12-22T07:10:34.159Z,90.06
2018-12-22T07:13:03.021Z,89.99
2018-12-22T07:15:31.937Z,90.02
2018-12-22T07:18:00.813Z,89.81
2018-12-22T07:20:29.699Z,89.73
2018-12-22T07:22:58.579Z,89.60
2018-12-22T07:25:27.495Z,89.61
2018-12-22T07:27:56.386Z,89.74
2018-12-22T07:30:26.438Z,89.42
2018-12-22T07:32:57.230Z,89.53
2018-12-22T07:35:23.101Z,89.41
2018-12-22T07:37:51.992Z,88.33
2018-12-22T07:40:20.896Z,88.89
2018-12-22T07:42:49.798Z,89.07
2018-12-22T07:45:18.701Z,89.25
2018-12-22T07:47:47.596Z,88.93
2018-12-22T07:50:16.488Z,88.42
2018-12-22T07:52:51.609Z,88.92
2018-12-22T07:55:14.287Z,89.11
2018-12-22T07:57:43.182Z,89.09
2018-12-22T08:00:12.104Z,89.34
2018-12-22T08:02:40.983Z,89.21
2018-12-22T08:05:09.971Z,89.49
2018-12-22T08:07:38.880Z,89.32
2018-12-22T08:10:08.014Z,89.56
2018-12-22T08:12:36.905Z,89.50
2018-12-22T08:15:05.911Z,89.55
2018-12-22T08:17:34.795Z,89.34
2018-12-22T08:20:03.705Z,88.98
2018-12-22T08:22:32.600Z,88.76
2018-12-22T08:25:01.482Z,89.00
2018-12-22T08:27:30.393Z,89.22
2018-12-22T08:29:59.272Z,88.91
2018-12-22T08:32:28.173Z,88.79
2018-12-22T08:34:57.058Z,88.41
2018-12-22T08:37:25.959Z,88.47
2018-12-22T08:39:54.845Z,88.46
2018-12-22T08:42:23.741Z,88.52
2018-12-22T08:44:52.668Z,88.50
2018-12-22T08:47:21.562Z,88.12
2018-12-22T08:49:50.476Z,88.59
2018-12-22T08:52:19.371Z,86.73
2018-12-22T08:54:48.258Z,85.81
2018-12-22T08:57:17.164Z,86.83
2018-12-22T08:59:46.062Z,87.05
2018-12-22T09:02:14.939Z,86.95
2018-12-22T09:04:43.871Z,86.46
2018-12-22T09:07:12.725Z,84.97
2018-12-22T09:09:41.618Z,85.87
2018-12-22T09:12:10.508Z,85.71
2018-12-22T09:14:39.413Z,85.55
2018-12-22T09:17:08.449Z,85.62
2018-12-22T09:19:37.336Z,85.79
2018-12-22T09:22:06.370Z,85.49
2018-12-22T09:24:35.291Z,85.44
2018-12-22T09:27:04.176Z,85.20
2018-12-22T09:29:33.085Z,85.45
2018-12-22T09:32:01.998Z,85.80
2018-12-22T09:34:30.893Z,85.57
2018-12-22T09:36:59.822Z,85.63
2018-12-22T09:39:28.713Z,85.43
2018-12-22T09:41:57.622Z,85.17
2018-12-22T09:44:26.494Z,85.35
2018-12-22T09:46:55.399Z,85.47
2018-12-22T09:49:24.310Z,85.47
2018-12-22T09:51:53.192Z,85.38
2018-12-22T09:54:22.102Z,85.07
2018-12-22T09:56:51.020Z,84.64
2018-12-22T09:59:19.977Z,84.23
2018-12-22T10:01:48.823Z,84.15
2018-12-22T10:04:17.730Z,83.91
2018-12-22T10:06:46.634Z,83.72
2018-12-22T10:09:15.635Z,83.50
2018-12-22T10:11:44.655Z,83.26
2018-12-22T10:14:13.530Z,83.12
2018-12-22T10:16:42.410Z,82.62
2018-12-22T10:19:11.345Z,82.85
2018-12-22T10:21:40.209Z,82.82
2018-12-22T10:24:09.288Z,82.41
2018-12-22T10:26:38.115Z,82.46
2018-12-22T10:29:07.123Z,82.82
2018-12-22T10:31:35.995Z,82.88
2018-12-22T10:34:04.943Z,83.18
2018-12-22T10:36:33.848Z,82.81
2018-12-22T10:39:02.916Z,82.89
2018-12-22T10:41:31.795Z,83.11
2018-12-22T10:44:00.706Z,83.20
2018-12-22T10:46:29.631Z,83.30
2018-12-22T10:48:58.500Z,83.23
2018-12-22T10:51:27.426Z,83.26
2018-12-22T10:53:56.289Z,83.09
2018-12-22T10:56:25.206Z,83.15
2018-12-22T10:58:54.212Z,82.73
2018-12-22T11:01:26.615Z,83.11
2018-12-22T11:03:51.992Z,83.29
2018-12-22T11:06:20.892Z,82.18
2018-12-22T11:08:49.839Z,83.21
2018-12-22T11:11:18.746Z,82.95
2018-12-22T11:13:47.623Z,82.76
2018-12-22T11:16:16.531Z,82.17
2018-12-22T11:18:45.488Z,81.99
2018-12-22T11:21:14.351Z,82.18
2018-12-22T11:23:43.251Z,81.89
2018-12-22T11:26:12.172Z,81.19
2018-12-22T11:28:41.121Z,80.72
2018-12-22T11:31:10.122Z,80.35
2018-12-22T11:33:39.042Z,78.56
2018-12-22T11:36:08.225Z,79.75
2018-12-22T11:38:37.118Z,78.62
2018-12-22T11:41:06.124Z,78.80
2018-12-22T11:43:34.970Z,77.96
2018-12-22T11:46:04.012Z,77.40
2018-12-22T11:49:00.845Z,76.75
2018-12-22T11:51:29.802Z,76.92
2018-12-22T11:53:58.747Z,77.21
2018-12-22T11:56:27.657Z,77.14
2018-12-22T11:58:56.584Z,76.59
2018-12-22T12:01:25.508Z,76.41
2018-12-22T12:03:54.413Z,76.80
2018-12-22T12:06:23.329Z,76.49
2018-12-22T12:08:52.193Z,76.92
2018-12-22T12:11:21.074Z,76.35
2018-12-22T12:13:49.950Z,76.35
2018-12-22T12:16:44.555Z,76.34
2018-12-22T12:19:25.296Z,76.30
2018-12-22T12:21:54.184Z,75.54
2018-12-22T12:24:23.122Z,75.69
2018-12-22T12:26:52.024Z,76.59
2018-12-22T12:29:20.892Z,77.15
2018-12-22T12:31:52.298Z,77.14
2018-12-22T12:34:18.691Z,77.63
2018-12-22T12:36:47.660Z,77.24
2018-12-22T12:39:16.807Z,77.35
2018-12-22T12:41:45.923Z,77.61
2018-12-22T12:44:14.853Z,77.67
2018-12-22T12:46:51.720Z,77.91
2018-12-22T12:49:21.205Z,77.81
2018-12-22T12:51:50.161Z,77.49
2018-12-22T12:54:20.304Z,77.52
2018-12-22T12:56:54.556Z,77.43
2018-12-22T12:59:23.813Z,76.53
2018-12-22T13:02:00.793Z,76.94
2018-12-22T13:04:21.653Z,76.79
2018-12-22T13:06:50.560Z,75.16
2018-12-22T13:09:19.481Z,76.23
2018-12-22T13:11:49.529Z,76.41
2018-12-22T13:14:23.633Z,76.38
2018-12-22T13:16:52.589Z,76.33
2018-12-22T13:19:21.506Z,76.35
2018-12-22T13:21:54.418Z,76.46
2018-12-22T13:24:23.316Z,76.64
2018-12-22T13:26:52.245Z,77.04
2018-12-22T13:29:21.147Z,76.80
2018-12-22T13:31:50.035Z,76.45
2018-12-22T13:34:18.917Z,76.52
2018-12-22T13:36:47.817Z,76.31
2018-12-22T13:39:25.742Z,76.38
2018-12-22T13:41:59.020Z,76.30
2018-12-22T13:44:31.483Z,76.29
2018-12-22T13:47:01.406Z,76.83
2018-12-22T13:49:33.421Z,76.82
2018-12-22T13:52:11.926Z,76.44
2018-12-22T13:54:42.161Z,76.84
2018-12-22T13:57:12.007Z,76.41
2018-12-22T13:59:44.738Z,76.35
2018-12-22T14:02:18.220Z,76.49
2018-12-22T14:04:47.855Z,76.37
2018-12-22T14:07:19.509Z,76.29
2018-12-22T14:09:55.076Z,76.65
2018-12-22T14:12:27.444Z,76.70
2018-12-22T14:14:57.309Z,76.73
2018-12-22T14:17:36.642Z,76.27
2018-12-22T14:20:17.033Z,76.99
2018-12-22T14:22:45.933Z,76.94
2018-12-22T14:25:22.008Z,76.99
2018-12-22T14:27:55.227Z,77.04
2018-12-22T14:30:25.061Z,76.65
2018-12-22T14:32:54.924Z,76.91
2018-12-22T14:35:55.079Z,76.60
2018-12-22T14:38:25.299Z,76.73
2018-12-22T14:40:54.644Z,77.14
2018-12-22T14:43:28.251Z,77.05
2018-12-22T14:45:57.744Z,76.89
2018-12-22T14:48:27.346Z,77.10
2018-12-22T14:51:02.512Z,77.36
2018-12-22T14:53:32.048Z,77.18
2018-12-22T14:56:03.403Z,77.39
2018-12-22T14:58:35.447Z,77.86
2018-12-22T15:01:05.069Z,78.21
2018-12-22T15:03:34.548Z,78.24
2018-12-22T15:06:11.038Z,78.33
2018-12-22T15:08:42.593Z,78.63
2018-12-22T15:11:14.521Z,78.26
2018-12-22T15:13:43.725Z,78.28
2018-12-22T15:16:18.565Z,78.13
2018-12-22T15:18:50.209Z,77.88
2018-12-22T15:21:17.239Z,78.17
2018-12-22T15:23:48.687Z,78.09
2018-12-22T15:26:23.065Z,78.73
2018-12-22T15:28:56.988Z,78.87
2018-12-22T15:31:27.471Z,79.01
2018-12-22T15:34:08.893Z,79.49
2018-12-22T15:36:40.483Z,79.07
2018-12-22T15:39:11.591Z,78.79
2018-12-22T15:41:42.905Z,78.82
2018-12-22T15:44:10.366Z,78.92
2018-12-22T15:46:39.798Z,78.84
2018-12-22T15:49:09.990Z,78.86
2018-12-22T15:51:41.426Z,79.25
2018-12-22T15:54:11.115Z,79.17
2018-12-22T15:56:40.594Z,79.09
2018-12-22T15:59:10.030Z,79.30
2018-12-22T16:01:46.939Z,79.58
2018-12-22T16:04:14.403Z,80.07
2018-12-22T16:06:43.714Z,80.29
2018-12-22T16:09:12.993Z,80.54
2018-12-22T16:11:44.886Z,81.06
2018-12-22T16:14:21.575Z,81.33
2018-12-22T16:16:49.372Z,81.31
2018-12-22T16:19:22.190Z,81.41
2018-12-22T16:21:58.988Z,81.68
2018-12-22T16:24:25.220Z,81.82
2018-12-22T16:27:03.531Z,82.59
2018-12-22T16:29:44.051Z,83.73
2018-12-22T16:32:18.676Z,83.40
2018-12-22T16:34:56.723Z,83.68
2018-12-22T16:37:26.734Z,83.63
2018-12-22T16:40:00.891Z,84.13
2018-12-22T16:42:36.088Z,84.81
2018-12-22T16:45:07.385Z,85.03
2018-12-22T16:47:38.589Z,85.15
2018-12-22T16:50:11.619Z,85.40
2018-12-22T16:52:41.204Z,85.30
2018-12-22T16:55:15.077Z,85.43
2018-12-22T16:57:53.795Z,85.32
2018-12-22T17:00:26.521Z,85.38
2018-12-22T17:03:11.416Z,85.34
2018-12-22T17:05:46.483Z,85.19
2018-12-22T17:08:16.173Z,84.96
2018-12-22T17:10:51.299Z,84.88
2018-12-22T17:13:23.009Z,84.88
2018-12-22T17:16:00.494Z,84.92
2018-12-22T17:18:37.746Z,84.71
2018-12-22T17:21:38.694Z,84.08
2018-12-22T17:24:37.253Z,84.15
2018-12-22T17:27:44.020Z,84.56
2018-12-22T17:30:18.108Z,84.95
2018-12-22T17:32:59.134Z,85.18
2018-12-22T17:35:31.687Z,85.33
2018-12-22T17:38:06.900Z,85.42
2018-12-22T17:40:31.595Z,85.11
2018-12-22T17:43:06.411Z,85.53
2018-12-22T17:46:04.076Z,85.26
2018-12-22T17:48:32.965Z,85.58
2018-12-22T17:51:01.887Z,85.84
2018-12-22T17:53:30.781Z,85.91
2018-12-22T17:55:59.682Z,86.20
2018-12-22T17:58:28.587Z,85.69
2018-12-22T18:00:57.899Z,85.69
2018-12-22T18:03:31.172Z,86.03
2018-12-22T18:06:00.056Z,85.94
2018-12-22T18:08:29.013Z,85.99
2018-12-22T18:10:57.921Z,85.90
2018-12-22T18:13:28.136Z,86.25
2018-12-22T18:15:55.792Z,86.49
2018-12-22T18:18:24.709Z,86.58
2018-12-22T18:20:53.615Z,86.32
2018-12-22T18:23:22.533Z,86.57
2018-12-22T18:25:51.421Z,86.30
2018-12-22T18:28:20.350Z,86.29
2018-12-22T18:30:49.270Z,86.61
2018-12-22T18:33:18.170Z,86.24
2018-12-22T18:35:47.102Z,84.79
2018-12-22T18:38:15.994Z,85.79
2018-12-22T18:40:44.915Z,85.95
2018-12-22T18:43:13.786Z,85.69
2018-12-22T18:45:42.699Z,85.98
2018-12-22T18:48:11.667Z,85.82
2018-12-22T18:50:40.567Z,84.31
2018-12-22T18:53:09.472Z,85.13
2018-12-22T18:55:38.388Z,85.10
2018-12-22T18:58:09.601Z,85.12
2018-12-22T19:00:38.537Z,84.40
2018-12-22T19:03:07.500Z,85.19
2018-12-22T19:05:36.503Z,85.24
2018-12-22T19:08:16.008Z,85.40
2018-12-22T19:10:56.891Z,84.96
2018-12-22T19:13:25.874Z,85.28
2018-12-22T19:15:54.781Z,85.30
2018-12-22T19:18:23.666Z,85.10
2018-12-22T19:20:53.735Z,85.07
2018-12-22T19:23:24.654Z,84.99
2018-12-22T19:25:53.789Z,85.00
2018-12-22T19:28:22.694Z,85.03
2018-12-22T19:30:51.586Z,84.69
2018-12-22T19:33:20.499Z,84.71
2018-12-22T19:35:49.442Z,85.25
2018-12-22T19:38:18.372Z,85.17
2018-12-22T19:40:47.530Z,85.06
2018-12-22T19:43:16.414Z,85.18
2018-12-22T19:45:45.322Z,85.08
2018-12-22T19:48:14.212Z,85.20
2018-12-22T19:50:43.122Z,85.26
2018-12-22T19:53:12.032Z,85.41
2018-12-22T19:55:40.953Z,85.27
2018-12-22T19:58:09.874Z,85.32
2018-12-22T20:00:38.773Z,84.53
2018-12-22T20:03:07.715Z,85.68
2018-12-22T20:05:36.609Z,85.41
2018-12-22T20:08:05.499Z,85.14
2018-12-22T20:10:34.422Z,84.88
2018-12-22T20:13:03.300Z,83.85
2018-12-22T20:15:32.176Z,84.68
2018-12-22T20:18:01.094Z,82.91
2018-12-22T20:20:30.040Z,83.63
2018-12-22T20:22:58.928Z,83.97
2018-12-22T20:25:27.856Z,84.12
2018-12-22T20:27:56.749Z,83.47
2018-12-22T20:30:25.753Z,82.04
2018-12-22T20:32:56.310Z,83.03
2018-12-22T20:35:23.584Z,83.62
2018-12-22T20:37:52.476Z,83.87
2018-12-22T20:40:21.431Z,83.56
2018-12-22T20:42:50.335Z,83.63
2018-12-22T20:45:19.230Z,83.48
2018-12-22T20:47:48.119Z,84.20
2018-12-22T20:50:17.059Z,83.88
2018-12-22T20:52:45.941Z,84.21
2018-12-22T20:55:14.852Z,84.74
2018-12-22T20:57:43.770Z,84.42
2018-12-22T21:00:12.709Z,84.67
2018-12-22T21:02:41.616Z,84.98
2018-12-22T21:05:10.536Z,84.89
2018-12-22T21:07:39.438Z,84.91
2018-12-22T21:10:08.395Z,85.28
2018-12-22T21:12:37.371Z,84.93
2018-12-22T21:15:06.292Z,85.00
2018-12-22T21:17:35.178Z,85.29
2018-12-22T21:20:04.110Z,85.01
2018-12-22T21:22:32.982Z,85.12
2018-12-22T21:25:01.906Z,84.97
2018-12-22T21:27:30.776Z,85.41
2018-12-22T21:29:59.668Z,84.98
2018-12-22T21:32:28.541Z,85.27
2018-12-22T21:34:57.433Z,85.52
2018-12-22T21:37:26.321Z,85.65
2018-12-22T21:39:55.214Z,85.85
2018-12-22T21:42:24.089Z,85.93
2018-12-22T21:44:52.989Z,85.96
2018-12-22T21:47:21.863Z,86.53
2018-12-22T21:49:50.772Z,85.07
2018-12-22T21:52:19.689Z,85.13
2018-12-22T21:54:48.621Z,84.74
2018-12-22T21:57:17.467Z,86.40
2018-12-22T21:59:46.335Z,86.58
2018-12-22T22:02:15.223Z,86.71
2018-12-22T22:04:44.135Z,85.29
2018-12-22T22:07:13.010Z,84.25
2018-12-22T22:09:41.919Z,85.44
2018-12-22T22:12:10.826Z,85.87
2018-12-22T22:14:39.710Z,86.23
2018-12-22T22:17:08.632Z,86.31
2018-12-22T22:19:37.493Z,86.65
2018-12-22T22:22:06.389Z,86.47
2018-12-22T22:24:35.256Z,86.60
2018-12-22T22:27:04.175Z,86.72
2018-12-22T22:29:33.037Z,86.93
2018-12-22T22:32:01.996Z,87.12
2018-12-22T22:34:30.925Z,87.26
2018-12-22T22:36:59.737Z,87.25
2018-12-22T22:39:28.605Z,87.46
2018-12-22T22:41:57.488Z,87.80
2018-12-22T22:44:26.395Z,87.52
2018-12-22T22:46:55.260Z,87.38
2018-12-22T22:49:24.168Z,87.85
2018-12-22T22:51:53.028Z,87.72
2018-12-22T22:54:22.022Z,87.65
2018-12-22T22:56:50.838Z,87.79
2018-12-22T22:59:19.732Z,87.76
2018-12-22T23:01:48.639Z,87.85
2018-12-22T23:04:17.519Z,87.41
2018-12-22T23:06:46.408Z,87.14
2018-12-22T23:09:15.308Z,87.04
2018-12-22T23:11:44.254Z,86.93
2018-12-22T23:14:13.148Z,86.77
2018-12-22T23:16:42.097Z,86.84
2018-12-22T23:19:11.002Z,86.84
2018-12-22T23:21:39.921Z,86.77
2018-12-22T23:24:08.853Z,86.84
2018-12-22T23:26:37.750Z,86.85
2018-12-22T23:29:06.656Z,86.70
2018-12-22T23:31:35.604Z,86.40
2018-12-22T23:34:04.558Z,86.48
2018-12-22T23:36:33.444Z,85.01
2018-12-22T23:39:02.372Z,85.98
2018-12-22T23:41:31.295Z,86.09
2018-12-22T23:44:00.186Z,84.35
2018-12-22T23:46:29.087Z,85.72
2018-12-22T23:48:57.994Z,85.45
2018-12-22T23:51:26.863Z,85.57
2018-12-22T23:53:55.774Z,85.74
2018-12-22T23:56:24.652Z,85.38
2018-12-22T23:58:53.582Z,85.72
